createdAt,value
2022-08-11T00:01:14.508Z,2.40
2022-08-11T00:03:46.938Z,2.33
2022-08-11T00:06:16.415Z,2.30
2022-08-11T00:08:50.645Z,2.40
2022-08-11T00:11:20.010Z,1.97
2022-08-11T00:13:51.122Z,2.20
2022-08-11T00:16:22.744Z,2.10
2022-08-11T00:18:53.470Z,2.10
2022-08-11T00:22:01.982Z,1.90
2022-08-11T00:24:11.780Z,2.23
2022-08-11T00:26:39.837Z,2.20
2022-08-11T00:29:11.756Z,2.07
2022-08-11T00:31:48.650Z,1.83
2022-08-11T00:34:18.930Z,1.87
2022-08-11T00:36:51.322Z,2.27
2022-08-11T00:39:29.183Z,2.30
2022-08-11T00:42:11.912Z,2.27
2022-08-11T00:44:53.667Z,2.10
2022-08-11T00:47:34.523Z,2.13
2022-08-11T00:50:16.064Z,2.00
2022-08-11T00:53:25.033Z,2.10
2022-08-11T00:56:44.329Z,2.03
2022-08-11T00:59:49.413Z,2.17
2022-08-11T01:02:20.214Z,2.10
2022-08-11T01:05:16.962Z,2.13
2022-08-11T01:08:29.957Z,2.10
2022-08-11T01:11:18.618Z,2.30
2022-08-11T01:14:12.051Z,2.10
2022-08-11T01:17:29.592Z,2.10
2022-08-11T01:20:46.881Z,1.90
2022-08-11T01:23:54.580Z,2.47
2022-08-11T01:27:19.133Z,2.43
2022-08-11T01:30:16.585Z,2.30
2022-08-11T01:33:34.865Z,1.90
2022-08-11T01:36:33.037Z,1.90
2022-08-11T01:39:33.127Z,2.30
2022-08-11T01:42:40.965Z,2.40
2022-08-11T01:45:22.249Z,2.20
2022-08-11T01:48:04.535Z,2.30
2022-08-11T01:50:46.390Z,2.30
2022-08-11T01:53:29.483Z,2.07
2022-08-11T01:56:14.128Z,2.10
2022-08-11T01:58:47.264Z,2.00
2022-08-11T02:01:33.350Z,2.20
2022-08-11T02:04:10.548Z,2.20
2022-08-11T02:06:56.631Z,2.23
2022-08-11T02:09:49.671Z,2.10
2022-08-11T02:12:37.611Z,2.30
2022-08-11T02:15:15.843Z,2.60
2022-08-11T02:17:55.083Z,2.53
2022-08-11T02:20:44.848Z,2.30
2022-08-11T02:24:07.077Z,2.30
2022-08-11T02:26:40.894Z,2.23
2022-08-11T02:29:19.807Z,2.30
2022-08-11T02:32:24.277Z,2.23
2022-08-11T02:35:04.483Z,2.43
2022-08-11T02:37:45.210Z,2.50
2022-08-11T02:40:23.263Z,2.40
2022-08-11T02:43:10.578Z,2.60
2022-08-11T02:45:54.419Z,2.40
2022-08-11T02:48:59.351Z,2.20
2022-08-11T02:51:36.195Z,2.27
2022-08-11T02:54:12.743Z,2.50
2022-08-11T02:56:52.223Z,2.77
2022-08-11T02:59:47.351Z,2.40
2022-08-11T03:02:23.560Z,2.80
2022-08-11T03:05:08.297Z,2.20
2022-08-11T03:07:49.325Z,2.40
2022-08-11T03:10:22.780Z,2.03
2022-08-11T03:13:15.569Z,2.50
2022-08-11T03:16:07.529Z,2.40
2022-08-11T03:18:46.468Z,2.30
2022-08-11T03:21:24.233Z,2.30
2022-08-11T03:24:19.448Z,2.67
2022-08-11T03:26:57.319Z,2.47
2022-08-11T03:29:37.875Z,2.20
2022-08-11T03:32:12.623Z,2.27
2022-08-11T03:34:44.611Z,2.50
2022-08-11T03:37:51.907Z,2.50
2022-08-11T03:41:01.933Z,2.30
2022-08-11T03:43:58.355Z,2.80
2022-08-11T03:46:39.585Z,2.50
2022-08-11T03:49:20.724Z,2.80
2022-08-11T03:51:55.163Z,2.67
2022-08-11T03:54:35.337Z,2.83
2022-08-11T03:57:46.757Z,2.53
2022-08-11T04:00:37.429Z,2.50
2022-08-11T04:03:43.195Z,2.30
2022-08-11T04:06:45.082Z,2.67
2022-08-11T04:10:01.327Z,2.53
2022-08-11T04:12:56.024Z,2.63
2022-08-11T04:16:11.827Z,2.73
2022-08-11T04:19:24.732Z,3.00
2022-08-11T04:22:39.867Z,2.40
2022-08-11T04:25:30.007Z,2.63
2022-08-11T04:28:42.859Z,3.23
2022-08-11T04:31:44.215Z,2.90
2022-08-11T04:35:07.991Z,2.70
2022-08-11T04:38:06.453Z,2.90
2022-08-11T04:41:21.888Z,3.00
2022-08-11T04:44:30.260Z,2.93
2022-08-11T04:47:58.170Z,2.70
2022-08-11T04:51:00.725Z,2.90
2022-08-11T04:54:12.058Z,2.83
2022-08-11T04:57:02.319Z,2.93
2022-08-11T05:00:11.948Z,2.90
2022-08-11T05:03:17.206Z,3.03
2022-08-11T05:06:12.754Z,2.70
2022-08-11T05:09:14.269Z,2.80
2022-08-11T05:12:07.218Z,2.90
2022-08-11T05:14:57.310Z,2.87
2022-08-11T05:17:53.298Z,2.80
2022-08-11T05:20:40.080Z,3.17
2022-08-11T05:23:28.935Z,2.70
2022-08-11T05:26:46.598Z,2.50
2022-08-11T05:29:47.007Z,3.03
2022-08-11T05:32:35.042Z,2.50
2022-08-11T05:35:07.421Z,3.17
2022-08-11T05:37:42.271Z,3.00
2022-08-11T05:40:31.050Z,2.70
2022-08-11T05:43:20.114Z,3.10
2022-08-11T05:46:15.824Z,2.53
2022-08-11T05:49:02.164Z,2.73
2022-08-11T05:51:55.356Z,3.20
2022-08-11T05:54:46.114Z,3.40
2022-08-11T05:57:48.345Z,2.97
2022-08-11T06:00:13.610Z,3.23
2022-08-11T06:02:43.736Z,3.03
2022-08-11T06:05:14.143Z,3.27
2022-08-11T06:07:49.588Z,3.20
2022-08-11T06:10:30.700Z,3.63
2022-08-11T06:13:01.104Z,3.20
2022-08-11T06:15:32.693Z,3.10
2022-08-11T06:18:02.856Z,2.97
2022-08-11T06:20:36.902Z,3.30
2022-08-11T06:23:08.582Z,2.80
2022-08-11T06:25:38.094Z,3.00
2022-08-11T06:28:08.515Z,3.10
2022-08-11T06:30:40.763Z,2.93
2022-08-11T06:33:11.550Z,2.80
2022-08-11T06:35:49.335Z,2.70
2022-08-11T06:38:31.526Z,2.60
2022-08-11T06:41:21.786Z,2.90
2022-08-11T06:43:56.409Z,2.87
2022-08-11T06:46:30.182Z,2.80
2022-08-11T06:48:59.548Z,3.03
2022-08-11T06:51:28.342Z,2.83
2022-08-11T06:54:05.572Z,3.23
2022-08-11T06:57:28.283Z,2.90
2022-08-11T07:00:02.014Z,2.70
2022-08-11T07:02:34.809Z,2.87
2022-08-11T07:05:08.327Z,2.83
2022-08-11T07:08:36.759Z,3.00
2022-08-11T07:11:52.463Z,2.77
2022-08-11T07:14:45.444Z,2.90
2022-08-11T07:17:22.212Z,2.60
2022-08-11T07:20:13.531Z,2.80
2022-08-11T07:23:02.203Z,5.97
2022-08-11T07:25:50.442Z,2.90
2022-08-11T07:28:40.387Z,2.80
2022-08-11T07:31:14.018Z,3.00
2022-08-11T07:34:07.300Z,2.90
2022-08-11T07:36:40.416Z,3.00
2022-08-11T07:39:13.246Z,3.03
2022-08-11T07:41:41.499Z,2.63
2022-08-11T07:44:11.539Z,2.60
2022-08-11T07:46:59.842Z,2.57
2022-08-11T07:49:48.358Z,2.70
2022-08-11T07:52:30.561Z,2.57
2022-08-11T07:55:02.302Z,2.80
2022-08-11T07:58:14.790Z,2.90
2022-08-11T08:00:59.186Z,2.87
2022-08-11T08:03:54.180Z,2.70
2022-08-11T08:06:40.949Z,2.77
2022-08-11T08:09:29.128Z,2.80
2022-08-11T08:12:15.224Z,2.80
2022-08-11T08:15:01.504Z,2.80
2022-08-11T08:18:09.264Z,2.50
2022-08-11T08:20:40.163Z,2.60
2022-08-11T08:23:09.340Z,2.83
2022-08-11T08:25:42.855Z,2.67
2022-08-11T08:28:14.011Z,2.80
2022-08-11T08:30:48.393Z,3.10
2022-08-11T08:33:21.216Z,2.93
2022-08-11T08:36:11.197Z,2.73
2022-08-11T08:38:41.243Z,2.50
2022-08-11T08:41:13.063Z,2.60
2022-08-11T08:43:48.382Z,2.50
2022-08-11T08:46:20.934Z,2.87
2022-08-11T08:48:50.403Z,2.30
2022-08-11T08:52:29.562Z,2.30
2022-08-11T08:54:28.923Z,2.45
2022-08-11T08:56:58.975Z,2.40
2022-08-11T08:59:47.447Z,2.60
2022-08-11T09:02:17.921Z,2.80
2022-08-11T09:04:48.035Z,2.30
2022-08-11T09:07:19.316Z,2.10
2022-08-11T09:09:50.024Z,2.50
2022-08-11T09:12:38.511Z,2.27
2022-08-11T09:15:10.336Z,2.27
2022-08-11T09:17:41.369Z,2.33
2022-08-11T09:20:12.778Z,2.23
2022-08-11T09:26:08.622Z,2.30
2022-08-11T09:28:38.587Z,2.30
2022-08-11T09:31:08.085Z,2.28
2022-08-11T09:33:37.279Z,2.30
2022-08-11T09:36:22.247Z,2.20
2022-08-11T09:39:09.746Z,2.20
2022-08-11T09:42:01.130Z,1.98
2022-08-11T09:44:48.567Z,2.40
2022-08-11T09:47:24.195Z,2.30
2022-08-11T09:49:54.701Z,2.10
2022-08-11T09:52:24.788Z,2.20
2022-08-11T09:54:54.444Z,2.33
2022-08-11T09:57:41.389Z,2.20
2022-08-11T10:00:15.060Z,1.70
2022-08-11T10:02:45.976Z,1.77
2022-08-11T10:05:36.048Z,2.00
2022-08-11T10:08:05.603Z,1.80
2022-08-11T10:10:38.468Z,2.08
2022-08-11T10:14:30.277Z,1.98
2022-08-11T10:16:16.328Z,2.10
2022-08-11T10:18:52.386Z,1.77
2022-08-11T10:21:28.503Z,2.00
2022-08-11T10:24:17.013Z,2.00
2022-08-11T10:26:56.684Z,1.88
2022-08-11T10:29:45.344Z,1.73
2022-08-11T10:32:57.866Z,1.95
2022-08-11T10:35:29.174Z,1.95
2022-08-11T10:38:07.442Z,1.77
2022-08-11T10:40:40.957Z,1.98
2022-08-11T10:43:13.731Z,1.90
2022-08-11T10:46:03.991Z,2.40
2022-08-11T10:48:38.283Z,2.50
2022-08-11T10:51:13.139Z,2.00
2022-08-11T10:54:01.471Z,2.38
2022-08-11T10:56:48.690Z,2.00
2022-08-11T10:59:17.999Z,2.80
2022-08-11T11:01:46.997Z,2.40
2022-08-11T11:04:18.483Z,1.85
2022-08-11T11:06:55.158Z,1.73
2022-08-11T11:09:32.413Z,3.00
2022-08-11T11:12:22.515Z,2.10
2022-08-11T11:15:10.345Z,1.80
2022-08-11T11:18:01.557Z,2.25
2022-08-11T11:20:39.177Z,2.17
2022-08-11T11:23:16.623Z,2.30
2022-08-11T11:26:27.080Z,1.77
2022-08-11T11:29:26.503Z,1.80
2022-08-11T11:32:10.471Z,1.55
2022-08-11T11:34:53.518Z,2.05
2022-08-11T11:37:24.752Z,1.60
2022-08-11T11:39:54.038Z,1.90
2022-08-11T11:42:22.886Z,1.48
2022-08-11T11:44:55.326Z,1.70
2022-08-11T11:47:24.798Z,1.67
2022-08-11T11:49:54.376Z,1.58
2022-08-11T11:52:24.894Z,1.50
2022-08-11T11:54:56.051Z,1.75
2022-08-11T11:57:59.397Z,1.75
2022-08-11T12:00:49.289Z,1.77
2022-08-11T12:03:18.929Z,1.95
2022-08-11T12:05:47.721Z,1.55
2022-08-11T12:08:18.633Z,1.65
2022-08-11T12:10:49.318Z,1.70
2022-08-11T12:13:36.313Z,1.77
2022-08-11T12:16:32.871Z,1.70
2022-08-11T12:18:56.511Z,1.77
2022-08-11T12:21:25.482Z,1.60
2022-08-11T12:24:14.949Z,1.70
2022-08-11T12:27:16.028Z,1.70
2022-08-11T12:29:52.794Z,1.70
2022-08-11T12:32:24.550Z,1.52
2022-08-11T12:34:52.755Z,1.73
2022-08-11T12:37:30.166Z,1.35
2022-08-11T12:40:48.816Z,1.30
2022-08-11T12:43:37.858Z,1.80
2022-08-11T12:46:09.984Z,1.60
2022-08-11T12:49:03.312Z,1.40
2022-08-11T12:52:12.225Z,1.45
2022-08-11T12:54:58.863Z,1.80
2022-08-11T12:57:51.208Z,1.50
2022-08-11T13:00:38.139Z,1.63
2022-08-11T13:03:26.103Z,1.65
2022-08-11T13:05:57.391Z,1.67
2022-08-11T13:08:27.803Z,1.33
2022-08-11T13:11:15.724Z,1.70
2022-08-11T13:13:55.500Z,1.48
2022-08-11T13:16:27.299Z,1.55
2022-08-11T13:18:56.562Z,1.50
2022-08-11T13:21:28.076Z,1.40
2022-08-11T13:24:00.291Z,1.60
2022-08-11T13:26:47.529Z,1.67
2022-08-11T13:29:20.925Z,1.60
2022-08-11T13:31:50.044Z,1.50
2022-08-11T13:34:19.733Z,1.67
2022-08-11T13:36:51.965Z,1.48
2022-08-11T13:39:24.077Z,1.42
2022-08-11T13:41:55.203Z,1.40
2022-08-11T13:44:28.128Z,1.52
2022-08-11T13:46:58.805Z,1.50
2022-08-11T13:49:28.048Z,1.70
2022-08-11T13:51:57.079Z,1.52
2022-08-11T13:54:28.527Z,1.63
2022-08-11T13:57:03.710Z,1.58
2022-08-11T13:59:52.044Z,1.50
2022-08-11T14:02:29.032Z,1.40
2022-08-11T14:05:00.179Z,1.40
2022-08-11T14:07:35.807Z,1.33
2022-08-11T14:10:05.626Z,1.42
2022-08-11T14:12:54.285Z,1.73
2022-08-11T14:15:27.658Z,1.40
2022-08-11T14:18:03.306Z,1.50
2022-08-11T14:20:53.820Z,1.30
2022-08-11T14:23:28.881Z,1.40
2022-08-11T14:26:15.029Z,1.50
2022-08-11T14:28:45.241Z,1.45
2022-08-11T14:31:16.448Z,1.30
2022-08-11T14:33:59.886Z,1.40
2022-08-11T14:36:32.817Z,1.25
2022-08-11T14:39:03.668Z,1.50
2022-08-11T14:42:11.671Z,1.40
2022-08-11T14:45:16.563Z,1.02
2022-08-11T14:47:49.965Z,1.50
2022-08-11T14:50:23.192Z,1.30
2022-08-11T14:52:54.973Z,1.40
2022-08-11T14:55:42.684Z,1.58
2022-08-11T14:58:12.098Z,1.17
2022-08-11T15:00:42.399Z,1.48
2022-08-11T15:03:14.010Z,1.40
2022-08-11T15:05:57.242Z,1.20
2022-08-11T15:08:46.268Z,1.50
2022-08-11T15:11:34.241Z,1.15
2022-08-11T15:14:05.023Z,1.30
2022-08-11T15:16:48.107Z,1.48
2022-08-11T15:19:21.287Z,1.50
2022-08-11T15:22:07.624Z,1.20
2022-08-11T15:24:36.938Z,1.50
2022-08-11T15:27:27.714Z,1.10
2022-08-11T15:30:20.945Z,1.40
2022-08-11T15:33:20.299Z,1.48
2022-08-11T15:36:08.990Z,1.33
2022-08-11T15:38:43.433Z,1.38
2022-08-11T15:41:34.174Z,1.40
2022-08-11T15:44:51.322Z,1.40
2022-08-11T15:47:19.571Z,1.30
2022-08-11T15:50:10.712Z,1.30
2022-08-11T15:52:48.744Z,1.30
2022-08-11T15:55:18.493Z,1.45
2022-08-11T15:58:07.436Z,1.38
2022-08-11T16:01:03.652Z,1.60
2022-08-11T16:04:07.931Z,1.45
2022-08-11T16:06:47.594Z,1.48
2022-08-11T16:09:24.704Z,2.90
2022-08-11T16:11:57.531Z,1.50
2022-08-11T16:14:44.440Z,2.10
2022-08-11T16:17:15.172Z,1.55
2022-08-11T16:19:45.226Z,1.95
2022-08-11T16:22:28.055Z,1.45
2022-08-11T16:27:07.088Z,1.58
2022-08-11T16:27:55.216Z,1.40
2022-08-11T16:30:27.484Z,1.73
2022-08-11T16:32:57.449Z,1.65
2022-08-11T16:35:44.317Z,1.50
2022-08-11T16:38:31.493Z,1.70
2022-08-11T16:41:05.373Z,1.38
2022-08-11T16:43:59.474Z,1.70
2022-08-11T16:46:46.211Z,1.48
2022-08-11T16:49:18.999Z,1.42
2022-08-11T16:51:47.388Z,1.48
2022-08-11T16:54:15.642Z,1.33
2022-08-11T16:56:48.513Z,1.75
2022-08-11T16:59:20.573Z,1.50
2022-08-11T17:01:53.286Z,1.70
2022-08-11T17:04:54.237Z,1.52
2022-08-11T17:07:43.198Z,1.60
2022-08-11T17:10:53.459Z,1.60
2022-08-11T17:13:32.671Z,1.48
2022-08-11T17:16:12.533Z,1.80
2022-08-11T17:18:51.215Z,1.63
2022-08-11T17:21:22.619Z,1.50
2022-08-11T17:23:54.925Z,1.63
2022-08-11T17:26:52.416Z,1.60
2022-08-11T17:29:25.660Z,1.65
2022-08-11T17:32:13.322Z,1.80
2022-08-11T17:35:01.446Z,1.48
2022-08-11T17:37:33.073Z,1.70
2022-08-11T17:40:03.458Z,1.70
2022-08-11T17:42:50.543Z,1.88
2022-08-11T17:45:39.249Z,1.40
2022-08-11T17:48:25.438Z,2.10
2022-08-11T17:50:55.836Z,1.88
2022-08-11T17:54:15.938Z,1.80
2022-08-11T17:56:50.968Z,1.83
2022-08-11T17:59:36.917Z,2.03
2022-08-11T18:02:21.293Z,1.70
2022-08-11T18:05:02.823Z,1.70
2022-08-11T18:07:48.569Z,2.00
2022-08-11T18:10:39.859Z,2.05
2022-08-11T18:13:26.262Z,1.77
2022-08-11T18:16:11.952Z,2.33
2022-08-11T18:18:58.696Z,2.40
2022-08-11T18:21:46.758Z,2.30
2022-08-11T18:24:57.124Z,2.30
2022-08-11T18:27:46.715Z,2.17
2022-08-11T18:30:32.459Z,2.63
2022-08-11T18:36:32.176Z,2.03
2022-08-11T18:39:19.130Z,2.08
2022-08-11T18:42:06.028Z,2.63
2022-08-11T18:44:53.550Z,2.28
2022-08-11T18:47:41.914Z,2.28
2022-08-11T18:50:38.609Z,2.20
2022-08-11T18:53:29.153Z,2.53
2022-08-11T18:56:16.788Z,2.20
2022-08-11T18:59:05.863Z,1.90
2022-08-11T19:01:55.260Z,1.77
2022-08-11T19:04:41.807Z,1.85
2022-08-11T19:07:30.497Z,2.30
2022-08-11T19:10:18.346Z,2.05
2022-08-11T19:13:05.764Z,2.13
2022-08-11T19:15:54.197Z,1.83
2022-08-11T19:18:41.851Z,2.00
2022-08-11T19:21:28.638Z,2.17
2022-08-11T19:24:18.564Z,1.85
2022-08-11T19:27:07.008Z,2.03
2022-08-11T19:30:04.906Z,1.88
2022-08-11T19:33:00.125Z,1.93
2022-08-11T19:35:46.466Z,2.10
2022-08-11T19:38:33.241Z,1.90
2022-08-11T19:41:21.913Z,2.20
2022-08-11T19:44:26.627Z,1.83
2022-08-11T19:47:13.240Z,2.03
2022-08-11T19:50:01.500Z,2.30
2022-08-11T19:52:48.729Z,2.00
2022-08-11T19:55:36.138Z,1.90
2022-08-11T19:58:22.470Z,1.80
2022-08-11T20:01:09.569Z,1.90
2022-08-11T20:03:55.458Z,2.07
2022-08-11T20:06:42.094Z,2.37
2022-08-11T20:10:05.044Z,2.33
2022-08-11T20:12:37.764Z,2.00
2022-08-11T20:15:25.483Z,2.47
2022-08-11T20:18:12.419Z,1.77
2022-08-11T20:20:58.375Z,1.90
2022-08-11T20:23:44.790Z,2.03
2022-08-11T20:26:31.503Z,2.00
2022-08-11T20:29:19.429Z,2.20
2022-08-11T20:32:09.420Z,1.90
2022-08-11T20:34:58.035Z,2.03
2022-08-11T20:37:50.220Z,2.10
2022-08-11T20:40:38.638Z,2.00
2022-08-11T20:44:07.916Z,2.00
2022-08-11T20:46:33.701Z,2.00
2022-08-11T20:49:21.326Z,2.10
2022-08-11T20:52:08.910Z,2.60
2022-08-11T20:54:56.916Z,2.60
2022-08-11T20:57:58.668Z,2.30
2022-08-11T21:00:47.543Z,2.50
2022-08-11T21:03:36.347Z,1.90
2022-08-11T21:06:33.421Z,2.60
2022-08-11T21:09:44.211Z,2.20
2022-08-11T21:12:30.972Z,2.20
2022-08-11T21:15:47.057Z,2.17
2022-08-11T21:18:28.446Z,2.50
2022-08-11T21:21:18.464Z,2.30
2022-08-11T21:24:07.189Z,2.13
2022-08-11T21:27:03.407Z,2.20
2022-08-11T21:29:51.075Z,2.20
2022-08-11T21:32:37.633Z,2.20
2022-08-11T21:35:24.898Z,2.10
2022-08-11T21:38:10.931Z,2.10
2022-08-11T21:41:00.125Z,2.53
2022-08-11T21:43:50.163Z,2.30
2022-08-11T21:46:39.123Z,2.30
2022-08-11T21:49:28.237Z,2.30
2022-08-11T21:52:13.902Z,2.20
2022-08-11T21:55:00.100Z,2.30
2022-08-11T21:57:48.089Z,2.03
2022-08-11T22:00:37.354Z,2.33
2022-08-11T22:03:24.964Z,2.00
2022-08-11T22:06:12.473Z,2.10
2022-08-11T22:08:59.008Z,2.47
2022-08-11T22:11:44.493Z,2.80
2022-08-11T22:14:30.234Z,2.47
2022-08-11T22:17:17.274Z,2.30
2022-08-11T22:20:03.934Z,2.00
2022-08-11T22:22:52.882Z,2.17
2022-08-11T22:25:51.327Z,2.30
2022-08-11T22:28:37.909Z,1.87
2022-08-11T22:31:25.351Z,2.40
2022-08-11T22:34:11.961Z,2.07
2022-08-11T22:36:59.708Z,2.30
2022-08-11T22:40:01.829Z,2.40
2022-08-11T22:42:48.595Z,2.50
2022-08-11T22:45:34.748Z,2.47
2022-08-11T22:48:22.964Z,2.40
2022-08-11T22:51:10.576Z,2.40
2022-08-11T22:53:59.092Z,2.60
2022-08-11T22:56:48.128Z,2.40
2022-08-11T22:59:35.041Z,2.20
2022-08-11T23:02:21.808Z,2.40
2022-08-11T23:05:08.301Z,2.27
2022-08-11T23:07:56.110Z,2.20
2022-08-11T23:10:42.853Z,2.30
2022-08-11T23:13:28.900Z,2.33
2022-08-11T23:16:15.559Z,1.87
2022-08-11T23:19:02.064Z,2.50
2022-08-11T23:21:49.766Z,2.50
2022-08-11T23:24:38.336Z,2.10
2022-08-11T23:27:27.431Z,2.27
2022-08-11T23:30:18.594Z,2.10
2022-08-11T23:33:06.827Z,2.00
2022-08-11T23:35:58.017Z,2.30
2022-08-11T23:38:46.796Z,2.40
2022-08-11T23:41:34.643Z,2.23
2022-08-11T23:44:21.916Z,2.20
2022-08-11T23:47:09.123Z,2.30
2022-08-11T23:49:55.628Z,2.33
2022-08-11T23:52:45.524Z,2.17
2022-08-11T23:55:31.493Z,2.10
2022-08-11T23:58:18.710Z,2.07
